Alma, New York
Current Conditions -  °F | °C
As of 2:56 PM on Sunday 23 Nov 2014 (Local Time) from KELZ Reporting Station
Clear Clear  
Wind Chill: 52°   Ceiling: Unl
Heat Index: 52°   Visibility: 10mi
Dew Point: 35°   Wind: 12mph
Humidity: 53%   Direction: 170°S
Pressure: 29.99"   Gusts: 18mph
Location:  42.01°N, 78.06°W
Report Text: KELZ 231956Z AUTO 17010G16KT 10SM CLR 11/02 A2999 RMK AO2 SLP161 T01110017
Loading
Personal Weather Stations






























Interactive Weather Map New forecast layout! Learn more

10-Day Weather Forecast

Advertisements
Track Severe Weather on mobile